This is the latest recevied weather packets stored in our database for station/object IU4KCH-20. If no packets are shown the sender has not sent any weather packets the latest 10 day(s).
| Time | Temp. | Humidity | Pressure | Rain* | Wind** | Luminosity | Snow |
|---|---|---|---|---|---|---|---|
| 1777987149 | 21.67° C | 62% | 1010 hPa | - | - | - | - |
| 1777986248 | 29.44° C | 44% | 1010 hPa | - | - | - | - |
| 1777984445 | 22.22° C | 63% | 1010.2 hPa | - | - | - | - |
| 1777982640 | 18.33° C | 75% | 1010.3 hPa | - | - | - | - |
| 1777981738 | 17.78° C | 75% | 1010.7 hPa | - | - | - | - |
| 1777980837 | 18.33° C | 73% | 1010.6 hPa | - | - | - | - |
| 1777979936 | 18.89° C | 72% | 1010.6 hPa | - | - | - | - |
| 1777979034 | 18.89° C | 72% | 1010.6 hPa | - | - | - | - |
| 1777978133 | 18.89° C | 72% | 1010.7 hPa | - | - | - | - |
| 1777977232 | 18.33° C | 74% | 1010.8 hPa | - | - | - | - |
| 1777976331 | 18.33° C | 75% | 1010.8 hPa | - | - | - | - |
| 1777975429 | 18.33° C | 74% | 1011 hPa | - | - | - | - |
| 1777974528 | 17.78° C | 78% | 1011 hPa | - | - | - | - |
| 1777973626 | 17.78° C | 79% | 1011 hPa | - | - | - | - |
| 1777972724 | 15.56° C | 83% | 1011.1 hPa | - | - | - | - |
| 1777971823 | 15.56° C | 83% | 1011 hPa | - | - | - | - |
| 1777970922 | 15° C | 84% | 1011.1 hPa | - | - | - | - |
| 1777970020 | 15.56° C | 85% | 1010.9 hPa | - | - | - | - |
| 1777969127 | 14.44° C | 85% | 1011.1 hPa | - | - | - | - |
| 1777968218 | 15° C | 86% | 1010.6 hPa | - | - | - | - |
| 1777967317 | 15° C | 87% | 1010.8 hPa | - | - | - | - |
| 1777966416 | 15° C | 88% | 1010.4 hPa | - | - | - | - |
| 1777965513 | 15° C | 84% | 1010.9 hPa | - | - | - | - |
| 1777964611 | 15° C | 82% | 1010.8 hPa | - | - | - | - |
| 1777963710 | 15° C | 81% | 1010.7 hPa | - | - | - | - |
* Rain since midnight (hover to see other rain measurements)
** Current wind speed in m/s (hover to see current wind gust speed)